Time;durP1;ratioP1;P1;durP2;ratioP2;P2;SDS_P1;SDS_P2;PMS_P1;PMS_P2;Temp;Humidity;BMP_temperature;BMP_pressure;BME280_temperature;BME280_humidity;BME280_pressure;Samples;Min_cycle;Max_cycle;Signal;HPM_P1;HPM_P2
2022/07/23 00:00:09;;;;;;;10.90;5.07;;;;;;;19.14;50.31;101120.75;5011310;28;20062;-70
2022/07/23 00:02:35;;;;;;;10.35;4.78;;;;;;;18.88;51.02;101110.63;5011035;28;20061;-70
2022/07/23 00:05:03;;;;;;;12.18;5.78;;;;;;;18.96;50.75;101104.19;5012128;28;20125;-70
2022/07/23 00:07:29;;;;;;;8.90;5.18;;;;;;;19.01;50.46;101101.69;4985461;28;20129;-69
2022/07/23 00:09:56;;;;;;;6.95;5.00;;;;;;;18.99;50.82;101099.16;5011237;28;20108;-70
2022/07/23 00:12:23;;;;;;;10.50;5.55;;;;;;;19.01;50.39;101091.66;5011265;28;20050;-70
2022/07/23 00:14:49;;;;;;;9.27;5.45;;;;;;;18.89;50.80;101095.13;5011738;28;20061;-70
2022/07/23 00:17:16;;;;;;;6.85;4.70;;;;;;;18.79;50.89;101099.13;5011674;28;20441;-69
2022/07/23 00:19:42;;;;;;;11.55;5.65;;;;;;;18.65;51.37;101101.97;5011188;28;20099;-70
2022/07/23 00:22:09;;;;;;;9.07;5.47;;;;;;;18.60;51.32;101097.16;5010709;28;20458;-71
2022/07/23 00:24:35;;;;;;;10.10;5.32;;;;;;;18.70;51.18;101099.50;5012347;28;20046;-71
2022/07/23 00:27:02;;;;;;;9.68;5.57;;;;;;;18.70;50.99;101094.06;5015551;28;20128;-70
2022/07/23 00:29:29;;;;;;;8.23;5.20;;;;;;;18.74;51.01;101084.44;5014740;28;20553;-70
2022/07/23 00:31:56;;;;;;;11.05;5.35;;;;;;;18.75;50.79;101086.94;5014558;28;20372;-70
2022/07/23 00:34:22;;;;;;;10.77;5.53;;;;;;;18.76;50.77;101087.81;5014703;28;20080;-70
2022/07/23 00:36:49;;;;;;;8.52;5.38;;;;;;;18.80;50.40;101083.63;5014548;28;20073;-70
2022/07/23 00:39:15;;;;;;;7.82;5.60;;;;;;;18.71;50.77;101090.28;5014481;28;20069;-69
2022/07/23 00:41:42;;;;;;;8.65;5.57;;;;;;;18.77;50.49;101090.31;5014925;28;20401;-70
2022/07/23 00:44:22;;;;;;;8.50;5.07;;;;;;;18.77;50.69;101089.47;5013070;28;20104;-70
2022/07/23 00:46:53;;;;;;;10.98;5.35;;;;;;;18.76;50.59;101088.66;5006723;28;20409;-70
2022/07/23 00:49:21;;;;;;;11.00;5.70;;;;;;;18.68;50.72;101087.97;5027685;28;20491;-71
2022/07/23 00:51:49;;;;;;;9.70;5.97;;;;;;;18.71;50.49;101079.44;5014521;28;20065;-70
2022/07/23 00:54:17;;;;;;;10.25;4.93;;;;;;;18.68;50.64;101077.13;5014806;28;20046;-69
2022/07/23 00:56:45;;;;;;;10.50;4.70;;;;;;;18.78;50.66;101091.16;5014262;28;20061;-69
2022/07/23 00:59:12;;;;;;;12.23;5.93;;;;;;;18.85;50.15;101093.88;5014127;28;20141;-69
2022/07/23 01:01:40;;;;;;;12.07;4.68;;;;;;;18.83;50.30;101099.53;5014792;28;20056;-71
2022/07/23 01:04:07;;;;;;;8.00;5.25;;;;;;;18.91;50.07;101098.50;5014671;28;20049;-70
2022/07/23 01:07:23;;;;;;;10.57;5.30;;;;;;;18.85;50.52;101094.72;5014762;28;20545;-69
2022/07/23 01:09:51;;;;;;;16.42;5.88;;;;;;;18.80;50.14;101097.22;5012167;28;20133;-70
2022/07/23 01:12:18;;;;;;;13.38;5.40;;;;;;;18.77;50.67;101092.19;5014532;28;20494;-70
2022/07/23 01:14:45;;;;;;;8.38;5.63;;;;;;;18.70;50.75;101092.19;5014575;28;20052;-70
2022/07/23 01:17:12;;;;;;;8.45;5.65;;;;;;;18.73;50.25;101088.22;5014335;28;20061;-69
2022/07/23 01:19:38;;;;;;;6.65;4.55;;;;;;;18.63;50.90;101087.78;5014195;28;20049;-70
2022/07/23 01:22:06;;;;;;;8.52;5.05;;;;;;;18.61;50.62;101084.41;5014420;28;20113;-71
2022/07/23 01:24:32;;;;;;;12.77;5.82;;;;;;;18.59;50.64;101078.38;5014934;28;20076;-70
2022/07/23 01:26:59;;;;;;;10.55;5.30;;;;;;;18.52;50.75;101075.63;5013663;28;20042;-69
2022/07/23 01:29:25;;;;;;;12.10;5.07;;;;;;;18.48;50.76;101061.63;5013160;28;20137;-71
2022/07/23 01:31:52;;;;;;;12.20;5.57;;;;;;;18.54;50.54;101070.81;5014282;28;20125;-71
2022/07/23 01:34:18;;;;;;;10.77;5.53;;;;;;;18.48;51.01;101066.19;5014785;28;20057;-71
2022/07/23 01:36:45;;;;;;;6.45;5.07;;;;;;;18.53;50.55;101067.25;5012556;28;20108;-70
2022/07/23 01:39:12;;;;;;;11.73;5.40;;;;;;;18.41;51.39;101059.91;5014162;28;20054;-70
2022/07/23 01:41:38;;;;;;;8.45;5.25;;;;;;;18.50;50.78;101064.13;5014358;28;20096;-69
2022/07/23 01:44:05;;;;;;;7.22;5.05;;;;;;;18.43;51.04;101055.09;5013324;28;20050;-69
2022/07/23 01:46:32;;;;;;;11.50;5.22;;;;;;;18.48;50.96;101066.19;5013731;28;20129;-69
2022/07/23 01:48:58;;;;;;;12.23;6.32;;;;;;;18.44;50.79;101063.03;5014285;28;20108;-70
2022/07/23 01:51:25;;;;;;;10.57;5.40;;;;;;;18.45;50.94;101059.31;5013111;28;20050;-70
2022/07/23 01:53:52;;;;;;;8.88;5.47;;;;;;;18.41;51.08;101052.59;5013061;28;20109;-70
2022/07/23 01:56:20;;;;;;;7.93;5.47;;;;;;;18.40;51.20;101061.78;5013602;28;20513;-70
2022/07/23 01:58:48;;;;;;;11.13;5.28;;;;;;;18.48;50.91;101053.47;5013601;28;20065;-70
2022/07/23 02:01:15;;;;;;;7.75;4.68;;;;;;;18.52;50.94;101060.16;5013401;28;20490;-70
2022/07/23 02:03:41;;;;;;;9.07;5.60;;;;;;;18.60;50.71;101050.13;5013445;28;20084;-70
2022/07/23 02:06:08;;;;;;;13.60;5.78;;;;;;;18.69;50.25;101057.91;5013823;28;20138;-70
2022/07/23 02:08:35;;;;;;;12.05;5.80;;;;;;;18.63;50.48;101049.72;5012947;28;20045;-70
2022/07/23 02:11:01;;;;;;;11.27;5.40;;;;;;;18.54;50.65;101041.75;5013302;28;20077;-71
2022/07/23 02:13:29;;;;;;;10.85;5.30;;;;;;;18.43;50.94;101046.97;5013713;28;20124;-70
2022/07/23 02:15:59;;;;;;;;;;;;;;;18.44;50.93;101038.59;5019563;28;20045;-70
2022/07/23 02:18:26;;;;;;;8.00;5.03;;;;;;;18.44;50.60;101035.03;5013241;28;19948;-70
2022/07/23 02:20:52;;;;;;;8.52;5.18;;;;;;;18.28;50.89;101047.97;5010994;28;20229;-70
2022/07/23 02:23:19;;;;;;;16.35;9.65;;;;;;;18.37;50.66;101045.06;5012351;28;20110;-70
2022/07/23 02:25:45;;;;;;;18.30;6.78;;;;;;;18.29;50.69;101054.22;5011873;28;20149;-70
2022/07/23 02:28:12;;;;;;;11.32;4.90;;;;;;;18.25;50.77;101048.34;5012962;28;20053;-70
2022/07/23 02:30:39;;;;;;;9.77;4.93;;;;;;;18.21;51.23;101055.25;5011544;28;20132;-70
2022/07/23 02:33:06;;;;;;;14.65;5.22;;;;;;;18.24;50.71;101052.13;5013275;28;20068;-70
2022/07/23 02:35:32;;;;;;;8.60;5.10;;;;;;;17.92;51.11;101042.72;5012744;28;20049;-70
2022/07/23 02:37:59;;;;;;;9.27;5.07;;;;;;;17.95;50.93;101041.50;5012516;28;20046;-70
2022/07/23 02:40:26;;;;;;;11.10;5.28;;;;;;;17.92;51.46;101053.59;5011869;28;20077;-70
2022/07/23 02:42:52;;;;;;;12.73;5.18;;;;;;;17.90;51.31;101052.97;5012498;28;20447;-70
2022/07/23 02:45:18;;;;;;;15.77;5.00;;;;;;;18.02;51.33;101055.94;5012704;28;20050;-70
2022/07/23 02:47:45;;;;;;;9.25;4.82;;;;;;;18.12;50.93;101055.59;5012662;28;20119;-70
2022/07/23 02:50:12;;;;;;;13.45;5.47;;;;;;;18.16;50.49;101056.88;5013117;28;20096;-70
2022/07/23 02:52:39;;;;;;;11.35;4.75;;;;;;;18.06;50.88;101049.06;5012057;28;20069;-70
2022/07/23 02:55:06;;;;;;;8.52;4.10;;;;;;;18.03;51.24;101049.47;5011867;28;20073;-70
2022/07/23 02:57:32;;;;;;;9.20;4.55;;;;;;;17.94;51.23;101048.81;5009787;28;20849;-70
2022/07/23 02:59:59;;;;;;;9.18;4.47;;;;;;;17.85;51.71;101042.69;5010291;28;20156;-70
2022/07/23 03:02:25;;;;;;;18.13;5.68;;;;;;;17.75;51.72;101052.25;5010844;28;20077;-70
2022/07/23 03:04:52;;;;;;;7.65;4.45;;;;;;;17.78;52.01;101057.28;5010456;28;20478;-70
2022/07/23 03:07:19;;;;;;;11.15;4.68;;;;;;;17.84;51.74;101053.78;5010930;28;20050;-70
2022/07/23 03:09:45;;;;;;;8.63;4.30;;;;;;;17.98;51.46;101044.66;5011423;28;20069;-69
2022/07/23 03:12:12;;;;;;;15.05;5.05;;;;;;;18.10;51.14;101039.50;5011932;28;20136;-70
2022/07/23 03:14:40;;;;;;;11.55;4.95;;;;;;;18.25;50.91;101061.09;5011239;28;20045;-70
2022/07/23 03:17:08;;;;;;;8.27;5.03;;;;;;;18.22;50.80;101054.19;5003271;28;20046;-70
2022/07/23 03:19:36;;;;;;;12.38;5.07;;;;;;;18.12;51.15;101040.13;5011034;28;20069;-70
2022/07/23 03:22:03;;;;;;;11.55;4.93;;;;;;;18.11;51.05;101048.47;5010602;28;20494;-70
2022/07/23 03:25:15;;;;;;;10.45;5.20;;;;;;;18.03;51.38;101054.91;5013001;28;20413;-69
2022/07/23 03:27:16;;;;;;;11.27;4.57;;;;;;;18.07;51.18;101061.63;5002685;28;20069;-70
2022/07/23 03:29:43;;;;;;;15.80;5.68;;;;;;;18.13;51.21;101066.22;5010545;28;20523;-70
2022/07/23 03:32:09;;;;;;;11.13;5.22;;;;;;;18.15;51.09;101066.06;5011171;28;20042;-70
2022/07/23 03:34:36;;;;;;;12.07;5.68;;;;;;;18.02;50.97;101073.06;5012087;28;20045;-70
2022/07/23 03:37:03;;;;;;;9.20;4.88;;;;;;;17.97;51.59;101082.88;5010656;28;20129;-70
2022/07/23 03:39:31;;;;;;;10.60;4.70;;;;;;;18.08;50.91;101075.00;5011043;28;20046;-70
2022/07/23 03:41:58;;;;;;;10.52;4.63;;;;;;;18.28;50.35;101085.16;5011213;28;20133;-68
2022/07/23 03:44:24;;;;;;;17.25;5.97;;;;;;;18.31;49.89;101091.00;5009702;28;20141;-70
2022/07/23 03:46:51;;;;;;;11.30;4.18;;;;;;;18.09;50.12;101092.09;5011110;28;20088;-70
2022/07/23 03:49:17;;;;;;;13.82;4.30;;;;;;;18.15;49.99;101113.06;5010454;28;20125;-70
2022/07/23 03:51:46;;;;;;;10.02;4.00;;;;;;;18.23;49.61;101112.88;5012149;28;20046;-69
2022/07/23 03:54:13;;;;;;;13.88;3.67;;;;;;;18.27;48.91;101119.63;5009913;28;20045;-70
2022/07/23 03:56:40;;;;;;;15.02;3.72;;;;;;;18.30;48.71;101104.78;5011951;28;20096;-70
2022/07/23 03:59:06;;;;;;;12.32;3.72;;;;;;;18.16;48.80;101108.47;5011350;28;20546;-70
2022/07/23 04:01:33;;;;;;;9.38;3.55;;;;;;;18.17;48.51;101104.72;5010681;28;20141;-70
2022/07/23 04:04:00;;;;;;;9.48;3.58;;;;;;;18.18;47.95;101106.41;5010471;28;20050;-70
2022/07/23 04:06:27;;;;;;;10.02;3.22;;;;;;;18.16;47.61;101093.00;5011177;28;20084;-70
2022/07/23 04:08:53;;;;;;;14.48;3.35;;;;;;;17.96;48.35;101082.03;5010845;28;20046;-69
2022/07/23 04:11:20;;;;;;;7.35;2.75;;;;;;;17.88;48.34;101079.47;5010419;28;20550;-69
2022/07/23 04:13:46;;;;;;;7.97;2.75;;;;;;;17.84;48.59;101072.75;5012169;28;20077;-69
2022/07/23 04:16:13;;;;;;;8.07;2.75;;;;;;;17.80;48.15;101082.34;5009784;28;20050;-69
2022/07/23 04:18:40;;;;;;;8.40;2.70;;;;;;;17.77;48.49;101088.19;5010428;28;20437;-69
2022/07/23 04:21:07;;;;;;;7.82;2.67;;;;;;;17.88;47.72;101094.91;5010663;28;20080;-69
2022/07/23 04:23:34;;;;;;;9.20;2.83;;;;;;;17.78;47.17;101081.69;5010348;28;20133;-69
2022/07/23 04:26:00;;;;;;;7.57;1.92;;;;;;;17.17;48.44;101047.03;5011351;28;20076;-69
2022/07/23 04:28:27;;;;;;;5.15;2.30;;;;;;;17.17;48.35;101054.31;5010640;28;20081;-69
2022/07/23 04:30:57;;;;;;;11.27;2.72;;;;;;;17.44;50.00;101061.66;5011660;28;20543;-69
2022/07/23 04:33:24;;;;;;;17.88;3.22;;;;;;;17.08;53.83;101061.75;5011284;28;20100;-69
2022/07/23 04:35:51;;;;;;;10.75;3.28;;;;;;;16.67;56.71;101082.19;5011726;28;20433;-69
2022/07/23 04:38:18;;;;;;;15.30;2.90;;;;;;;16.60;55.17;101100.22;5011721;28;20057;-69
2022/07/23 04:40:45;;;;;;;11.55;3.15;;;;;;;16.46;55.51;101117.31;5011822;28;20045;-70
2022/07/23 04:43:12;;;;;;;9.07;2.45;;;;;;;16.39;56.27;101111.81;5011380;28;20566;-69
2022/07/23 04:45:38;;;;;;;14.75;2.80;;;;;;;16.21;59.06;101107.84;5011754;28;20550;-69
2022/07/23 04:48:05;;;;;;;14.30;2.80;;;;;;;16.14;58.34;101124.00;4988147;28;20050;-69
2022/07/23 04:50:32;;;;;;;15.35;3.65;;;;;;;16.08;59.23;101125.56;4991606;28;20073;-69
2022/07/23 04:52:59;;;;;;;8.70;2.60;;;;;;;16.12;59.67;101126.88;4991338;28;20050;-70
2022/07/23 04:55:25;;;;;;;7.90;2.70;;;;;;;16.03;60.45;101119.88;4991982;28;20181;-69
2022/07/23 04:57:52;;;;;;;11.32;2.85;;;;;;;15.94;61.13;101119.13;4991513;28;20066;-70
2022/07/23 05:00:18;;;;;;;8.45;2.70;;;;;;;15.62;62.31;101095.94;4992108;28;20137;-69
2022/07/23 05:02:45;;;;;;;11.55;3.22;;;;;;;15.05;64.45;101095.59;4991405;28;20070;-68
2022/07/23 05:05:11;;;;;;;11.32;3.30;;;;;;;14.84;66.33;101107.06;4991503;28;20042;-68
2022/07/23 05:07:38;;;;;;;10.65;4.05;;;;;;;14.81;66.38;101097.47;4991663;28;20050;-68
2022/07/23 05:10:05;;;;;;;12.93;3.83;;;;;;;14.70;67.45;101109.50;4992175;28;20125;-68
2022/07/23 05:12:32;;;;;;;20.70;4.53;;;;;;;14.51;68.01;101099.97;4993436;28;20418;-67
2022/07/23 05:14:59;;;;;;;10.38;4.18;;;;;;;14.56;68.25;101110.22;4994495;28;20046;-68
2022/07/23 05:17:25;;;;;;;14.30;3.90;;;;;;;14.46;68.82;101101.50;5016304;28;20136;-68
2022/07/23 05:19:52;;;;;;;11.30;4.88;;;;;;;14.34;69.30;101084.03;5014304;28;20061;-68
2022/07/23 05:22:25;;;;;;;20.02;5.68;;;;;;;14.29;69.72;101095.38;5015158;28;20461;-68
2022/07/23 05:24:52;;;;;;;12.80;4.65;;;;;;;14.28;69.35;101077.47;5014323;28;20128;-68
2022/07/23 05:27:19;;;;;;;10.20;4.88;;;;;;;14.29;69.41;101076.47;5014867;28;20084;-68
2022/07/23 05:29:45;;;;;;;10.65;4.63;;;;;;;14.32;70.33;101070.69;5014671;28;20516;-68
2022/07/23 05:32:12;;;;;;;14.73;5.40;;;;;;;14.19;70.16;101084.78;5014316;28;20054;-68
2022/07/23 05:34:38;;;;;;;12.88;5.00;;;;;;;14.23;69.82;101091.50;5013375;28;20056;-68
2022/07/23 05:37:05;;;;;;;23.95;5.10;;;;;;;14.40;69.83;101108.47;5014091;28;20672;-68
2022/07/23 05:39:32;;;;;;;16.05;5.05;;;;;;;14.55;69.83;101111.25;5014229;28;20092;-68
2022/07/23 05:41:58;;;;;;;11.65;5.13;;;;;;;14.63;70.07;101104.94;5014171;28;20069;-68
2022/07/23 05:44:27;;;;;;;15.52;5.35;;;;;;;14.69;69.78;101110.50;5014224;28;20138;-68
2022/07/23 05:47:00;;;;;;;9.13;4.75;;;;;;;14.68;69.06;101114.22;5013910;28;20100;-69
2022/07/23 05:49:26;;;;;;;14.75;4.78;;;;;;;14.82;69.01;101123.44;5013862;28;20128;-68
2022/07/23 05:51:53;;;;;;;14.88;4.57;;;;;;;14.84;69.19;101124.09;5013975;28;20056;-68
2022/07/23 05:54:19;;;;;;;11.25;4.70;;;;;;;14.92;68.74;101125.94;5013670;28;20120;-68
2022/07/23 05:56:46;;;;;;;11.57;4.20;;;;;;;15.02;68.56;101140.03;5014417;28;20486;-68
2022/07/23 05:59:14;;;;;;;12.80;4.40;;;;;;;15.01;68.62;101133.78;5014063;28;20132;-68
2022/07/23 06:01:41;;;;;;;14.23;5.43;;;;;;;15.15;68.90;101131.31;5014031;28;20449;-68
2022/07/23 06:04:08;;;;;;;18.67;4.60;;;;;;;15.20;68.19;101123.53;5013198;28;20089;-69
2022/07/23 06:06:35;;;;;;;13.95;4.40;;;;;;;15.13;68.31;101103.66;5013603;28;20054;-68
2022/07/23 06:09:01;;;;;;;13.95;4.57;;;;;;;14.88;68.57;101103.00;5012548;28;20137;-68
2022/07/23 06:11:29;;;;;;;10.50;5.00;;;;;;;14.72;69.44;101091.25;5012823;28;20049;-68
2022/07/23 06:13:55;;;;;;;12.00;4.72;;;;;;;14.43;70.59;101088.38;5011351;28;20072;-68
2022/07/23 06:16:22;;;;;;;12.98;5.05;;;;;;;14.49;70.55;101101.97;5013926;28;20069;-68
2022/07/23 06:18:49;;;;;;;17.42;6.00;;;;;;;14.52;71.19;101084.59;5013906;28;20050;-67
2022/07/23 06:21:15;;;;;;;12.43;5.78;;;;;;;14.61;70.75;101091.66;5014556;28;20402;-68
2022/07/23 06:24:02;;;;;;;13.98;5.57;;;;;;;14.75;71.38;101095.47;5011958;28;20073;-68
2022/07/23 06:26:28;;;;;;;23.88;6.47;;;;;;;14.79;71.07;101096.78;5013905;28;20133;-68
2022/07/23 06:28:55;;;;;;;15.30;6.50;;;;;;;14.79;71.54;101094.09;5012854;28;20137;-68
2022/07/23 06:31:21;;;;;;;14.57;6.72;;;;;;;14.57;71.63;101087.63;5012926;28;20491;-67
2022/07/23 06:33:49;;;;;;;18.85;6.50;;;;;;;14.54;71.41;101071.78;5014087;28;20103;-67
2022/07/23 06:36:16;;;;;;;15.55;6.80;;;;;;;14.44;71.73;101072.00;5014017;28;20449;-68
2022/07/23 06:38:42;;;;;;;15.05;5.95;;;;;;;14.38;71.28;101077.25;5013976;28;20077;-67
2022/07/23 06:41:11;;;;;;;12.40;6.07;;;;;;;14.50;71.47;101065.06;5014260;28;20049;-67
2022/07/23 06:43:38;;;;;;;20.73;6.65;;;;;;;14.50;71.23;101063.19;5013389;28;20046;-67
2022/07/23 06:46:04;;;;;;;20.25;6.72;;;;;;;14.69;71.26;101061.88;5013519;28;20453;-67
2022/07/23 06:48:31;;;;;;;18.38;6.82;;;;;;;14.76;71.18;101062.88;5014507;28;20080;-67
2022/07/23 06:50:58;;;;;;;15.32;7.07;;;;;;;14.84;70.91;101063.84;5014425;28;20049;-68
2022/07/23 06:53:24;;;;;;;19.15;7.00;;;;;;;14.96;70.74;101057.00;5013447;28;20050;-68
2022/07/23 06:55:51;;;;;;;18.67;5.90;;;;;;;15.06;70.82;101079.22;5013619;28;20542;-68
2022/07/23 06:58:19;;;;;;;21.63;8.13;;;;;;;15.17;70.11;101067.97;5013270;28;20109;-69
2022/07/23 07:00:46;;;;;;;20.77;7.65;;;;;;;15.20;70.51;101073.00;5013090;28;20099;-68
2022/07/23 07:03:12;;;;;;;15.20;6.53;;;;;;;15.03;70.34;101071.47;5013192;28;20097;-69
2022/07/23 07:05:42;;;;;;;16.83;5.80;;;;;;;15.11;69.95;101084.06;5012083;28;20065;-69
2022/07/23 07:08:08;;;;;;;14.32;6.70;;;;;;;15.21;70.28;101096.31;5012146;28;20133;-68
2022/07/23 07:10:35;;;;;;;19.40;6.32;;;;;;;15.25;70.73;101116.53;5011570;28;20046;-69
2022/07/23 07:13:01;;;;;;;15.20;6.13;;;;;;;15.43;70.28;101105.44;5011922;28;20070;-69
2022/07/23 07:15:28;;;;;;;17.15;5.88;;;;;;;15.55;70.35;101113.09;5011901;28;20073;-69
2022/07/23 07:17:54;;;;;;;15.23;6.00;;;;;;;15.60;69.26;101116.91;5011083;28;20069;-68
2022/07/23 07:20:21;;;;;;;15.63;6.15;;;;;;;15.78;68.79;101116.63;5011822;28;20077;-69
2022/07/23 07:22:48;;;;;;;13.25;5.07;;;;;;;15.75;68.51;101118.84;5012393;28;20069;-69
2022/07/23 07:25:15;;;;;;;20.27;5.95;;;;;;;15.78;67.94;101118.44;5011181;28;20129;-69
2022/07/23 07:27:43;;;;;;;16.67;5.78;;;;;;;15.87;68.03;101123.59;5011508;28;20124;-69
2022/07/23 07:30:11;;;;;;;14.93;5.30;;;;;;;16.09;67.82;101105.63;5011638;28;20096;-69
2022/07/23 07:32:37;;;;;;;16.83;5.85;;;;;;;16.18;68.06;101099.06;5009583;28;20136;-69
2022/07/23 07:35:22;;;;;;;16.85;6.13;;;;;;;16.43;68.34;101104.16;5010729;28;20042;-69
2022/07/23 07:37:49;;;;;;;13.43;6.57;;;;;;;16.59;67.90;101112.09;5012041;28;20486;-69
2022/07/23 07:40:15;;;;;;;14.10;5.88;;;;;;;16.65;67.50;101105.09;5011510;28;20124;-69
2022/07/23 07:42:50;;;;;;;12.77;5.53;;;;;;;16.83;66.72;101097.38;5011306;28;20124;-69
2022/07/23 07:45:19;;;;;;;10.07;5.07;;;;;;;16.92;65.82;101087.25;5010763;28;20042;-69
2022/07/23 07:47:46;;;;;;;16.50;5.22;;;;;;;16.97;65.95;101087.50;5011996;28;20046;-69
2022/07/23 07:50:13;;;;;;;12.73;5.13;;;;;;;17.00;65.52;101091.69;5012257;28;20076;-68
2022/07/23 07:52:40;;;;;;;14.13;4.93;;;;;;;17.02;65.15;101076.91;5010887;28;20133;-69
2022/07/23 07:55:08;;;;;;;11.75;4.93;;;;;;;17.20;64.79;101076.47;5011107;28;20129;-69
2022/07/23 07:57:36;;;;;;;15.02;5.50;;;;;;;17.38;64.51;101084.16;5011349;28;20049;-69
2022/07/23 08:00:07;;;;;;;12.57;5.80;;;;;;;17.55;64.57;101073.84;5011811;28;20124;-69
2022/07/23 08:02:41;;;;;;;;;;;;;;;17.63;63.40;101075.56;5011429;28;20125;-69
2022/07/23 08:05:08;;;;;;;8.55;4.80;;;;;;;17.82;63.34;101091.13;5011552;28;19926;-69
2022/07/23 08:07:35;;;;;;;12.98;6.38;;;;;;;18.02;63.17;101092.06;5010885;28;20053;-69
2022/07/23 08:10:01;;;;;;;15.35;6.72;;;;;;;18.28;62.62;101096.00;5011674;28;20506;-69
2022/07/23 08:12:37;;;;;;;14.45;5.82;;;;;;;18.37;62.25;101093.94;5009452;28;20157;-69
2022/07/23 08:15:04;;;;;;;10.20;5.10;;;;;;;19.05;59.96;101088.53;5010438;28;20438;-69
2022/07/23 08:17:34;;;;;;;14.30;5.72;;;;;;;19.88;59.85;101073.41;5011643;28;20065;-69
2022/07/23 08:20:01;;;;;;;12.73;4.72;;;;;;;20.25;57.42;101081.91;5011680;28;20088;-69
2022/07/23 08:22:50;;;;;;;11.35;4.50;;;;;;;20.35;55.50;101076.81;5010244;28;20399;-69
2022/07/23 08:25:21;;;;;;;11.90;4.20;;;;;;;20.51;54.86;101083.69;4996458;28;20084;-69
2022/07/23 08:27:49;;;;;;;16.48;5.65;;;;;;;20.34;55.54;101077.03;5011206;28;20136;-70
2022/07/23 08:30:19;;;;;;;11.18;4.15;;;;;;;20.61;54.64;101085.94;5011315;28;20069;-71
2022/07/23 08:32:54;;;;;;;10.63;3.88;;;;;;;20.43;53.78;101087.50;5011564;28;20594;-69
2022/07/23 08:35:31;;;;;;;7.32;3.53;;;;;;;20.95;52.56;101084.69;5011663;28;20046;-69
2022/07/23 08:38:00;;;;;;;11.27;3.60;;;;;;;21.06;50.89;101080.41;5010542;28;20141;-68
2022/07/23 08:40:29;;;;;;;7.07;3.10;;;;;;;21.51;50.36;101089.28;5011504;28;20435;-69
2022/07/23 08:42:56;;;;;;;9.88;3.88;;;;;;;21.71;49.57;101096.47;5010953;28;20495;-69
2022/07/23 08:45:24;;;;;;;10.00;3.20;;;;;;;22.40;46.78;101110.88;5009677;28;20532;-70
2022/07/23 08:47:58;;;;;;;8.98;3.33;;;;;;;22.56;46.87;101093.84;5015151;28;20100;-70
2022/07/23 08:50:27;;;;;;;8.73;3.03;;;;;;;22.71;46.38;101086.06;5014720;28;20050;-69
2022/07/23 08:52:56;;;;;;;7.18;2.95;;;;;;;23.10;45.38;101081.06;5014894;28;20038;-69
2022/07/23 08:55:23;;;;;;;9.02;3.25;;;;;;;22.72;46.01;101082.25;5014457;28;20053;-69
2022/07/23 08:57:51;;;;;;;5.38;2.38;;;;;;;22.96;45.29;101088.63;5015261;28;20149;-70
2022/07/23 09:00:19;;;;;;;7.13;2.53;;;;;;;23.35;44.74;101101.94;5013400;28;20125;-70
2022/07/23 09:02:47;;;;;;;7.57;2.65;;;;;;;23.35;43.71;101096.47;5014226;28;20073;-70
2022/07/23 09:05:14;;;;;;;17.23;3.05;;;;;;;22.85;44.06;101102.28;5014434;28;20459;-69
2022/07/23 09:08:10;;;;;;;8.45;2.72;;;;;;;23.41;42.08;101101.00;5014414;28;20096;-69
2022/07/23 09:10:57;;;;;;;8.60;3.05;;;;;;;23.56;42.88;101108.75;5014359;28;20129;-70
2022/07/23 09:13:26;;;;;;;9.82;2.85;;;;;;;23.49;42.12;101095.19;5013378;28;20110;-69
2022/07/23 09:15:53;;;;;;;11.25;3.13;;;;;;;23.36;41.30;101098.97;5014366;28;20072;-69
2022/07/23 09:18:38;;;;;;;10.23;2.90;;;;;;;23.35;41.86;101101.94;5014237;28;20545;-70
2022/07/23 09:21:12;;;;;;;10.70;4.35;;;;;;;23.15;42.01;101108.56;5014567;28;20042;-69
2022/07/23 09:23:44;;;;;;;7.97;3.13;;;;;;;23.32;42.48;101113.38;5013444;28;20081;-70
2022/07/23 09:26:24;;;;;;;10.77;3.50;;;;;;;23.03;42.42;101115.91;5014012;28;20562;-69
2022/07/23 09:29:02;;;;;;;13.52;3.17;;;;;;;23.12;42.31;101119.13;5013801;28;20062;-69
2022/07/23 09:31:53;;;;;;;8.15;3.10;;;;;;;22.91;42.50;101124.06;5014221;28;20482;-69
2022/07/23 09:34:20;;;;;;;;;;;;;;;22.85;42.22;101124.19;5015662;28;20042;-69
2022/07/23 09:36:51;;;;;;;6.97;2.97;;;;;;;22.83;42.18;101123.56;5014790;28;19991;-69
2022/07/23 09:39:38;;;;;;;11.40;3.00;;;;;;;22.64;42.47;101129.09;5014359;28;20096;-70
2022/07/23 09:42:34;;;;;;;11.57;4.30;;;;;;;22.60;42.32;101127.84;5014294;28;20128;-69
2022/07/23 09:45:01;;;;;;;12.50;3.28;;;;;;;23.66;40.65;101123.53;5013039;28;20110;-70
2022/07/23 09:47:31;;;;;;;10.07;3.05;;;;;;;24.03;40.08;101109.59;5013907;28;20509;-70
2022/07/23 09:50:11;;;;;;;7.03;3.15;;;;;;;24.28;38.87;101117.53;5014464;28;20096;-69
2022/07/23 09:52:47;;;;;;;6.63;2.65;;;;;;;24.48;38.74;101119.91;5013884;28;20103;-70
2022/07/23 09:55:15;;;;;;;8.35;3.63;;;;;;;24.01;39.28;101132.84;5014010;28;20072;-70
2022/07/23 09:57:43;;;;;;;10.50;3.22;;;;;;;23.66;39.60;101129.00;5010457;28;20072;-69
2022/07/23 10:00:11;;;;;;;9.98;3.22;;;;;;;23.62;40.14;101136.03;5013837;28;20125;-70
2022/07/23 10:02:39;;;;;;;12.30;3.63;;;;;;;23.56;40.18;101136.97;5012702;28;20526;-70
2022/07/23 10:05:06;;;;;;;10.95;3.08;;;;;;;23.72;40.09;101139.00;5013565;28;20092;-70
2022/07/23 10:07:37;;;;;;;8.82;3.13;;;;;;;24.13;38.68;101150.13;5012971;28;20074;-70
2022/07/23 10:10:05;;;;;;;13.70;2.92;;;;;;;24.83;36.89;101138.97;5014205;28;20080;-69
2022/07/23 10:15:17;;;;;;;9.20;2.83;;;;;;;24.21;37.34;101141.50;5008162;28;20125;-69
2022/07/23 10:17:43;;;;;;;9.82;2.92;;;;;;;24.26;37.78;101136.13;5013263;28;20099;-70
2022/07/23 10:20:10;;;;;;;7.90;2.35;;;;;;;25.15;36.05;101127.47;5012973;28;20141;-69
2022/07/23 10:23:16;;;;;;;5.40;2.50;;;;;;;25.36;35.89;101134.16;5012791;28;20451;-69
2022/07/23 10:25:52;;;;;;;9.82;2.63;;;;;;;25.19;36.86;101141.53;5011697;28;20125;-69
2022/07/23 10:28:46;;;;;;;8.82;2.50;;;;;;;24.75;36.22;101147.59;5011612;28;20046;-69
2022/07/23 10:31:36;;;;;;;11.02;2.65;;;;;;;24.39;36.58;101135.88;4993331;28;20042;-69
2022/07/23 10:34:48;;;;;;;11.40;2.72;;;;;;;23.71;37.76;101144.72;4993566;28;20058;-69
2022/07/23 10:37:31;;;;;;;9.93;2.90;;;;;;;23.90;38.22;101145.47;4984010;28;20062;-69
2022/07/23 10:40:17;;;;;;;6.00;2.47;;;;;;;23.42;39.61;101146.47;4992802;28;20073;-69
2022/07/23 10:42:45;;;;;;;10.45;2.60;;;;;;;23.93;38.40;101151.31;4993041;28;20061;-68
2022/07/23 10:45:31;;;;;;;7.88;2.83;;;;;;;24.35;37.38;101147.56;4991893;28;20130;-70
2022/07/23 10:48:20;;;;;;;7.43;2.72;;;;;;;25.00;35.95;101158.25;4993404;28;20045;-70
2022/07/23 10:51:24;;;;;;;6.97;2.22;;;;;;;25.07;34.65;101155.34;4992758;28;20061;-69
2022/07/23 10:53:50;;;;;;;6.55;2.17;;;;;;;25.68;33.96;101150.06;4951626;29;20130;-70
2022/07/23 10:56:55;;;;;;;8.65;2.75;;;;;;;25.38;34.98;101152.06;4951814;29;20142;-69
2022/07/23 10:59:22;;;;;;;8.77;2.72;;;;;;;24.92;35.62;101151.22;4951403;29;20051;-69
2022/07/23 11:01:49;;;;;;;6.63;2.22;;;;;;;25.53;34.68;101156.97;4951459;29;20122;-69
2022/07/23 11:04:17;;;;;;;8.57;2.55;;;;;;;25.72;34.12;101154.84;4951943;29;20086;-69
2022/07/23 11:06:50;;;;;;;8.18;2.70;;;;;;;25.63;34.12;101152.75;4951398;29;20114;-69
2022/07/23 11:09:29;;;;;;;5.72;2.20;;;;;;;25.17;34.19;101149.22;4947499;28;20389;-70
2022/07/23 11:12:13;;;;;;;4.30;2.08;;;;;;;25.50;34.25;101143.72;4952460;29;20464;-69
2022/07/23 11:14:58;;;;;;;6.15;1.98;;;;;;;25.32;34.42;101141.22;4951089;29;20203;-70
2022/07/23 11:17:25;;;;;;;7.90;3.10;;;;;;;25.02;35.11;101134.09;4951002;29;20047;-70
2022/07/23 11:20:15;;;;;;;11.38;3.10;;;;;;;25.02;35.20;101134.09;4951677;29;20047;-70
2022/07/23 11:22:44;;;;;;;7.15;2.55;;;;;;;25.17;35.26;101138.22;4941831;29;20059;-70
2022/07/23 11:25:22;;;;;;;9.13;2.53;;;;;;;24.94;35.26;101130.91;4950351;29;20126;-70
2022/07/23 11:27:51;;;;;;;9.35;2.40;;;;;;;25.08;34.49;101135.88;4969999;28;20046;-70
2022/07/23 11:30:26;;;;;;;8.70;2.42;;;;;;;24.58;35.41;101135.72;4991621;28;20096;-70
2022/07/23 11:33:14;;;;;;;10.15;2.97;;;;;;;25.19;34.88;101138.81;4991534;28;20517;-70
2022/07/23 11:35:43;;;;;;;9.02;2.50;;;;;;;25.14;34.40;101132.16;4991599;28;20066;-70